Terminal Aerodrome Forecast
Issued by NWS Green Bay, WI

Home | Current Version | Previous Version | Graphics & Text | Print | Product List | Glossary On
Versions: 1 2 3 4 5 6 7 8 9 10 11 12 13 14 15 16 17 18 19 20 21 22 23 24 25 26
000
FTUS43 KGRB 262300
TAFGRB
TAF
KGRB 262328Z 2700/2724 29005KT P6SM SCT250
     FM270500 34003KT P6SM BKN120
     FM270900 VRB03KT P6SM BKN070
     FM271300 03006KT P6SM SCT040 BKN100
     FM272000 06007KT P6SM SCT050=

USA.gov is the U.S. government's official web portal to all federal, state and local government web resources and services.